sensor_id;sensor_type;location;lat;lon;timestamp;pressure;altitude;pressure_sealevel;temperature;humidity
47082;BME280;33066;49.296;14.470;2023-04-16T00:00:45;96609.15;;;11.64;40.34
47082;BME280;33066;49.296;14.470;2023-04-16T00:03:10;96607.60;;;11.84;40.39
47082;BME280;33066;49.296;14.470;2023-04-16T00:05:35;96613.63;;;11.93;40.33
47082;BME280;33066;49.296;14.470;2023-04-16T00:08:02;96609.91;;;11.67;40.28
47082;BME280;33066;49.296;14.470;2023-04-16T00:10:26;96606.15;;;11.92;40.33
47082;BME280;33066;49.296;14.470;2023-04-16T00:12:53;96605.18;;;11.75;40.39
47082;BME280;33066;49.296;14.470;2023-04-16T00:15:17;96601.80;;;11.86;40.32
47082;BME280;33066;49.296;14.470;2023-04-16T00:17:42;96608.58;;;12.41;40.17
47082;BME280;33066;49.296;14.470;2023-04-16T00:20:09;96615.16;;;11.92;40.14
47082;BME280;33066;49.296;14.470;2023-04-16T00:22:32;96619.36;;;11.87;40.26
47082;BME280;33066;49.296;14.470;2023-04-16T00:24:58;96619.08;;;11.82;40.38
47082;BME280;33066;49.296;14.470;2023-04-16T00:27:23;96622.04;;;12.06;40.39
47082;BME280;33066;49.296;14.470;2023-04-16T00:29:49;96626.35;;;11.97;40.49
47082;BME280;33066;49.296;14.470;2023-04-16T00:32:14;96628.30;;;12.19;40.49
47082;BME280;33066;49.296;14.470;2023-04-16T00:34:39;96630.29;;;12.00;40.51
47082;BME280;33066;49.296;14.470;2023-04-16T00:37:05;96629.13;;;11.97;40.63
47082;BME280;33066;49.296;14.470;2023-04-16T00:39:30;96628.46;;;11.71;40.63
47082;BME280;33066;49.296;14.470;2023-04-16T00:41:56;96629.16;;;11.83;40.80
47082;BME280;33066;49.296;14.470;2023-04-16T00:44:21;96629.62;;;12.01;40.94
47082;BME280;33066;49.296;14.470;2023-04-16T00:46:47;96628.72;;;11.70;41.02
47082;BME280;33066;49.296;14.470;2023-04-16T00:49:12;96627.47;;;11.49;40.98
47082;BME280;33066;49.296;14.470;2023-04-16T00:51:38;96628.86;;;11.49;40.92
47082;BME280;33066;49.296;14.470;2023-04-16T00:54:05;96630.87;;;11.74;40.90
47082;BME280;33066;49.296;14.470;2023-04-16T00:56:29;96630.66;;;11.61;41.03
47082;BME280;33066;49.296;14.470;2023-04-16T00:58:54;96631.79;;;11.72;40.90
47082;BME280;33066;49.296;14.470;2023-04-16T01:01:19;96631.04;;;12.00;40.70
47082;BME280;33066;49.296;14.470;2023-04-16T01:03:46;96634.32;;;11.97;40.67
47082;BME280;33066;49.296;14.470;2023-04-16T01:06:11;96636.51;;;11.99;40.66
47082;BME280;33066;49.296;14.470;2023-04-16T01:08:36;96635.47;;;11.49;40.89
47082;BME280;33066;49.296;14.470;2023-04-16T01:11:01;96634.88;;;11.93;40.95
47082;BME280;33066;49.296;14.470;2023-04-16T01:13:26;96635.83;;;11.69;40.86
47082;BME280;33066;49.296;14.470;2023-04-16T01:15:52;96638.79;;;11.67;40.83
47082;BME280;33066;49.296;14.470;2023-04-16T01:18:19;96638.20;;;11.80;40.98
47082;BME280;33066;49.296;14.470;2023-04-16T01:20:43;96639.31;;;11.70;40.90
47082;BME280;33066;49.296;14.470;2023-04-16T01:23:08;96641.10;;;11.92;41.17
47082;BME280;33066;49.296;14.470;2023-04-16T01:25:33;96646.27;;;12.00;41.10
47082;BME280;33066;49.296;14.470;2023-04-16T01:27:59;96651.28;;;11.81;41.06
47082;BME280;33066;49.296;14.470;2023-04-16T01:30:25;96652.12;;;11.65;41.16
47082;BME280;33066;49.296;14.470;2023-04-16T01:32:50;96651.18;;;11.96;41.10
47082;BME280;33066;49.296;14.470;2023-04-16T01:35:15;96653.01;;;11.84;40.86
47082;BME280;33066;49.296;14.470;2023-04-16T01:37:40;96653.86;;;11.96;40.91
47082;BME280;33066;49.296;14.470;2023-04-16T01:40:07;96654.21;;;12.22;40.85
47082;BME280;33066;49.296;14.470;2023-04-16T01:42:31;96654.78;;;11.85;40.71
47082;BME280;33066;49.296;14.470;2023-04-16T01:44:57;96658.58;;;12.11;40.72
47082;BME280;33066;49.296;14.470;2023-04-16T01:47:24;96661.92;;;11.86;40.86
47082;BME280;33066;49.296;14.470;2023-04-16T01:49:48;96661.73;;;11.78;41.03
47082;BME280;33066;49.296;14.470;2023-04-16T01:52:14;96659.16;;;11.78;41.12
47082;BME280;33066;49.296;14.470;2023-04-16T01:54:40;96657.13;;;12.24;41.12
47082;BME280;33066;49.296;14.470;2023-04-16T01:57:05;96656.66;;;12.04;41.22
47082;BME280;33066;49.296;14.470;2023-04-16T01:59:30;96655.44;;;11.93;41.23
47082;BME280;33066;49.296;14.470;2023-04-16T02:01:55;96656.29;;;11.85;41.31
47082;BME280;33066;49.296;14.470;2023-04-16T02:04:20;96659.36;;;11.78;41.40
47082;BME280;33066;49.296;14.470;2023-04-16T02:06:46;96656.26;;;11.77;41.55
47082;BME280;33066;49.296;14.470;2023-04-16T02:09:11;96660.39;;;11.81;41.58
47082;BME280;33066;49.296;14.470;2023-04-16T02:11:36;96659.58;;;11.84;41.56
47082;BME280;33066;49.296;14.470;2023-04-16T02:14:03;96664.18;;;11.59;41.47
47082;BME280;33066;49.296;14.470;2023-04-16T02:16:28;96665.80;;;11.80;41.59
47082;BME280;33066;49.296;14.470;2023-04-16T02:18:53;96665.81;;;11.80;41.71
47082;BME280;33066;49.296;14.470;2023-04-16T02:21:19;96665.53;;;11.55;41.79
47082;BME280;33066;49.296;14.470;2023-04-16T02:23:44;96664.40;;;11.85;41.62
47082;BME280;33066;49.296;14.470;2023-04-16T02:26:09;96663.75;;;11.85;41.74
47082;BME280;33066;49.296;14.470;2023-04-16T02:28:34;96665.20;;;11.89;41.80
47082;BME280;33066;49.296;14.470;2023-04-16T02:31:01;96665.74;;;11.90;41.65
47082;BME280;33066;49.296;14.470;2023-04-16T02:33:25;96669.02;;;11.70;41.46
47082;BME280;33066;49.296;14.470;2023-04-16T02:35:50;96668.09;;;11.74;41.46
47082;BME280;33066;49.296;14.470;2023-04-16T02:38:16;96668.70;;;12.00;41.39
47082;BME280;33066;49.296;14.470;2023-04-16T02:40:41;96669.68;;;11.84;41.23
47082;BME280;33066;49.296;14.470;2023-04-16T02:43:07;96671.49;;;12.09;41.40
47082;BME280;33066;49.296;14.470;2023-04-16T02:45:32;96671.97;;;12.09;41.37
47082;BME280;33066;49.296;14.470;2023-04-16T02:47:58;96673.26;;;12.15;41.19
47082;BME280;33066;49.296;14.470;2023-04-16T02:50:24;96671.39;;;12.38;41.03
47082;BME280;33066;49.296;14.470;2023-04-16T02:52:48;96670.47;;;11.93;40.95
47082;BME280;33066;49.296;14.470;2023-04-16T02:55:15;96667.68;;;12.49;40.91
47082;BME280;33066;49.296;14.470;2023-04-16T02:57:39;96668.70;;;12.04;40.94
47082;BME280;33066;49.296;14.470;2023-04-16T03:00:05;96668.40;;;12.00;40.90
47082;BME280;33066;49.296;14.470;2023-04-16T03:02:29;96670.19;;;12.00;40.91
47082;BME280;33066;49.296;14.470;2023-04-16T03:04:54;96674.08;;;11.96;40.81
47082;BME280;33066;49.296;14.470;2023-04-16T03:07:19;96680.93;;;11.95;40.88
47082;BME280;33066;49.296;14.470;2023-04-16T03:09:45;96681.95;;;12.16;41.00
47082;BME280;33066;49.296;14.470;2023-04-16T03:13:01;96684.56;;;12.14;40.74
47082;BME280;33066;49.296;14.470;2023-04-16T03:15:26;96683.58;;;12.25;40.81
47082;BME280;33066;49.296;14.470;2023-04-16T03:17:52;96679.23;;;12.20;40.86
47082;BME280;33066;49.296;14.470;2023-04-16T03:20:17;96677.89;;;12.16;40.80
47082;BME280;33066;49.296;14.470;2023-04-16T03:22:42;96679.07;;;11.65;40.66
47082;BME280;33066;49.296;14.470;2023-04-16T03:25:08;96685.89;;;12.32;40.64
47082;BME280;33066;49.296;14.470;2023-04-16T03:27:32;96687.44;;;12.06;40.60
47082;BME280;33066;49.296;14.470;2023-04-16T03:29:57;96688.97;;;12.28;40.69
47082;BME280;33066;49.296;14.470;2023-04-16T03:32:23;96690.14;;;12.02;40.66
47082;BME280;33066;49.296;14.470;2023-04-16T03:34:48;96693.03;;;11.86;40.69
47082;BME280;33066;49.296;14.470;2023-04-16T03:37:13;96694.05;;;12.07;40.64
47082;BME280;33066;49.296;14.470;2023-04-16T03:39:39;96697.80;;;12.07;40.66
47082;BME280;33066;49.296;14.470;2023-04-16T03:42:04;96702.03;;;12.02;40.82
47082;BME280;33066;49.296;14.470;2023-04-16T03:44:29;96703.08;;;11.91;41.08
47082;BME280;33066;49.296;14.470;2023-04-16T03:46:55;96703.94;;;11.94;41.20
47082;BME280;33066;49.296;14.470;2023-04-16T03:49:20;96709.49;;;12.22;40.87
47082;BME280;33066;49.296;14.470;2023-04-16T03:51:46;96711.69;;;12.00;41.16
47082;BME280;33066;49.296;14.470;2023-04-16T03:54:11;96712.14;;;11.99;41.11
47082;BME280;33066;49.296;14.470;2023-04-16T03:56:38;96713.74;;;12.00;41.05
47082;BME280;33066;49.296;14.470;2023-04-16T03:59:01;96717.50;;;11.97;40.92
47082;BME280;33066;49.296;14.470;2023-04-16T04:01:27;96720.33;;;12.22;40.94
47082;BME280;33066;49.296;14.470;2023-04-16T04:03:52;96716.16;;;12.03;40.58
47082;BME280;33066;49.296;14.470;2023-04-16T04:06:18;96720.91;;;12.01;40.60
47082;BME280;33066;49.296;14.470;2023-04-16T04:08:43;96729.71;;;12.11;41.55
47082;BME280;33066;49.296;14.470;2023-04-16T04:11:08;96735.44;;;12.14;40.96
47082;BME280;33066;49.296;14.470;2023-04-16T04:13:33;96739.43;;;12.17;41.72
47082;BME280;33066;49.296;14.470;2023-04-16T04:15:58;96744.05;;;12.21;41.82
47082;BME280;33066;49.296;14.470;2023-04-16T04:18:24;96746.53;;;12.21;41.68
47082;BME280;33066;49.296;14.470;2023-04-16T04:20:49;96747.04;;;12.21;42.19
47082;BME280;33066;49.296;14.470;2023-04-16T04:23:16;96744.99;;;12.13;41.68
47082;BME280;33066;49.296;14.470;2023-04-16T04:25:40;96746.79;;;12.25;41.49
47082;BME280;33066;49.296;14.470;2023-04-16T04:28:06;96748.46;;;12.02;41.75
47082;BME280;33066;49.296;14.470;2023-04-16T04:30:31;96752.07;;;11.99;41.55
47082;BME280;33066;49.296;14.470;2023-04-16T04:32:57;96756.32;;;12.01;41.47
47082;BME280;33066;49.296;14.470;2023-04-16T04:35:22;96755.71;;;12.09;41.51
47082;BME280;33066;49.296;14.470;2023-04-16T04:37:47;96755.89;;;11.99;41.37
47082;BME280;33066;49.296;14.470;2023-04-16T04:40:15;96757.44;;;11.99;41.71
47082;BME280;33066;49.296;14.470;2023-04-16T04:42:38;96760.07;;;11.92;41.72
47082;BME280;33066;49.296;14.470;2023-04-16T04:45:05;96763.05;;;11.93;41.77
47082;BME280;33066;49.296;14.470;2023-04-16T04:47:29;96766.66;;;12.19;41.65
47082;BME280;33066;49.296;14.470;2023-04-16T04:49:54;96770.82;;;11.99;41.44
47082;BME280;33066;49.296;14.470;2023-04-16T04:52:20;96772.51;;;11.99;41.51
47082;BME280;33066;49.296;14.470;2023-04-16T04:54:45;96777.53;;;12.00;41.59
47082;BME280;33066;49.296;14.470;2023-04-16T04:57:10;96775.21;;;11.94;41.87
47082;BME280;33066;49.296;14.470;2023-04-16T04:59:35;96775.10;;;11.98;41.57
47082;BME280;33066;49.296;14.470;2023-04-16T05:02:01;96773.79;;;10.80;41.66
47082;BME280;33066;49.296;14.470;2023-04-16T05:04:29;96777.22;;;12.71;40.52
47082;BME280;33066;49.296;14.470;2023-04-16T05:06:53;96781.09;;;12.32;40.85
47082;BME280;33066;49.296;14.470;2023-04-16T05:09:17;96780.52;;;12.47;40.87
47082;BME280;33066;49.296;14.470;2023-04-16T05:11:42;96780.48;;;12.48;40.67
47082;BME280;33066;49.296;14.470;2023-04-16T05:14:08;96780.02;;;12.48;40.65
47082;BME280;33066;49.296;14.470;2023-04-16T05:16:36;96783.83;;;12.27;40.59
47082;BME280;33066;49.296;14.470;2023-04-16T05:18:59;96786.90;;;12.53;40.59
47082;BME280;33066;49.296;14.470;2023-04-16T05:21:25;96790.40;;;12.53;41.07
47082;BME280;33066;49.296;14.470;2023-04-16T05:23:50;96790.77;;;12.30;40.87
47082;BME280;33066;49.296;14.470;2023-04-16T05:26:16;96791.31;;;12.73;41.04
47082;BME280;33066;49.296;14.470;2023-04-16T05:28:41;96795.27;;;12.64;41.20
47082;BME280;33066;49.296;14.470;2023-04-16T05:31:06;96800.05;;;12.61;41.27
47082;BME280;33066;49.296;14.470;2023-04-16T05:33:31;96806.25;;;12.52;41.36
47082;BME280;33066;49.296;14.470;2023-04-16T05:35:57;96812.39;;;12.48;41.44
47082;BME280;33066;49.296;14.470;2023-04-16T05:38:22;96816.53;;;12.55;41.38
47082;BME280;33066;49.296;14.470;2023-04-16T05:40:48;96819.64;;;12.47;41.28
47082;BME280;33066;49.296;14.470;2023-04-16T05:43:12;96820.99;;;12.55;41.32
47082;BME280;33066;49.296;14.470;2023-04-16T05:45:38;96821.69;;;12.58;41.12
47082;BME280;33066;49.296;14.470;2023-04-16T05:48:04;96822.24;;;12.64;40.88
47082;BME280;33066;49.296;14.470;2023-04-16T05:50:29;96827.12;;;12.64;40.79
47082;BME280;33066;49.296;14.470;2023-04-16T05:52:54;96825.14;;;12.70;40.82
47082;BME280;33066;49.296;14.470;2023-04-16T05:55:19;96832.39;;;12.74;40.36
47082;BME280;33066;49.296;14.470;2023-04-16T05:57:44;96834.74;;;12.52;40.44
47082;BME280;33066;49.296;14.470;2023-04-16T06:00:11;96841.83;;;12.79;40.93
47082;BME280;33066;49.296;14.470;2023-04-16T06:02:34;96841.90;;;12.63;41.03
47082;BME280;33066;49.296;14.470;2023-04-16T06:04:59;96839.43;;;12.59;41.86
47082;BME280;33066;49.296;14.470;2023-04-16T06:07:25;96841.50;;;12.92;41.08
47082;BME280;33066;49.296;14.470;2023-04-16T06:09:51;96844.34;;;12.37;41.51
47082;BME280;33066;49.296;14.470;2023-04-16T06:12:16;96847.14;;;12.70;41.81
47082;BME280;33066;49.296;14.470;2023-04-16T06:14:41;96850.32;;;12.73;42.13
47082;BME280;33066;49.296;14.470;2023-04-16T06:17:06;96850.76;;;12.56;41.84
47082;BME280;33066;49.296;14.470;2023-04-16T06:19:32;96851.60;;;12.68;41.45
47082;BME280;33066;49.296;14.470;2023-04-16T06:21:58;96853.29;;;12.97;41.96
47082;BME280;33066;49.296;14.470;2023-04-16T06:24:23;96855.16;;;13.04;41.95
47082;BME280;33066;49.296;14.470;2023-04-16T06:26:49;96859.90;;;12.80;40.86
47082;BME280;33066;49.296;14.470;2023-04-16T06:29:15;96862.43;;;12.69;40.82
47082;BME280;33066;49.296;14.470;2023-04-16T06:31:40;96864.26;;;12.90;41.42
47082;BME280;33066;49.296;14.470;2023-04-16T06:34:05;96861.35;;;12.65;40.75
47082;BME280;33066;49.296;14.470;2023-04-16T06:36:30;96861.28;;;12.86;40.56
47082;BME280;33066;49.296;14.470;2023-04-16T06:38:55;96862.83;;;13.17;41.04
47082;BME280;33066;49.296;14.470;2023-04-16T06:41:21;96863.90;;;13.09;40.54
47082;BME280;33066;49.296;14.470;2023-04-16T06:43:48;96867.12;;;12.81;40.98
47082;BME280;33066;49.296;14.470;2023-04-16T06:46:12;96864.44;;;12.62;40.64
47082;BME280;33066;49.296;14.470;2023-04-16T06:48:38;96862.87;;;12.87;40.30
47082;BME280;33066;49.296;14.470;2023-04-16T06:51:03;96865.49;;;12.60;41.08
47082;BME280;33066;49.296;14.470;2023-04-16T06:53:28;96865.97;;;12.64;41.42
47082;BME280;33066;49.296;14.470;2023-04-16T06:55:53;96871.33;;;13.07;42.17
47082;BME280;33066;49.296;14.470;2023-04-16T06:58:19;96874.84;;;12.64;41.64
47082;BME280;33066;49.296;14.470;2023-04-16T07:00:44;96879.49;;;12.93;41.47
47082;BME280;33066;49.296;14.470;2023-04-16T07:03:10;96879.53;;;13.01;41.10
47082;BME280;33066;49.296;14.470;2023-04-16T07:05:35;96881.96;;;12.90;40.94
47082;BME280;33066;49.296;14.470;2023-04-16T07:08:01;96883.53;;;12.97;40.83
47082;BME280;33066;49.296;14.470;2023-04-16T07:10:26;96887.75;;;13.12;41.03
47082;BME280;33066;49.296;14.470;2023-04-16T07:12:52;96888.35;;;13.36;40.75
47082;BME280;33066;49.296;14.470;2023-04-16T07:15:18;96890.44;;;13.57;40.31
47082;BME280;33066;49.296;14.470;2023-04-16T07:17:43;96890.48;;;13.51;40.28
47082;BME280;33066;49.296;14.470;2023-04-16T07:20:10;96892.44;;;13.86;39.67
47082;BME280;33066;49.296;14.470;2023-04-16T07:22:37;96887.84;;;14.01;39.76
47082;BME280;33066;49.296;14.470;2023-04-16T07:25:01;96889.04;;;13.83;39.68
47082;BME280;33066;49.296;14.470;2023-04-16T07:27:27;96889.52;;;13.99;39.45
47082;BME280;33066;49.296;14.470;2023-04-16T07:29:51;96888.97;;;14.07;38.49
47082;BME280;33066;49.296;14.470;2023-04-16T07:32:17;96890.02;;;14.26;39.00
47082;BME280;33066;49.296;14.470;2023-04-16T07:34:43;96889.40;;;14.46;38.96
47082;BME280;33066;49.296;14.470;2023-04-16T07:37:09;96890.17;;;14.45;38.90
47082;BME280;33066;49.296;14.470;2023-04-16T07:39:36;96893.56;;;14.61;38.24
47082;BME280;33066;49.296;14.470;2023-04-16T07:42:01;96896.04;;;14.59;38.20
47082;BME280;33066;49.296;14.470;2023-04-16T07:44:25;96896.59;;;14.57;38.35
47082;BME280;33066;49.296;14.470;2023-04-16T07:46:51;96891.47;;;14.73;38.46
47082;BME280;33066;49.296;14.470;2023-04-16T07:49:16;96892.96;;;14.78;37.97
47082;BME280;33066;49.296;14.470;2023-04-16T07:51:42;96893.47;;;14.75;37.80
47082;BME280;33066;49.296;14.470;2023-04-16T07:54:07;96894.57;;;14.40;37.33
47082;BME280;33066;49.296;14.470;2023-04-16T07:56:32;96899.09;;;14.63;37.57
47082;BME280;33066;49.296;14.470;2023-04-16T07:58:58;96901.07;;;14.68;37.18
47082;BME280;33066;49.296;14.470;2023-04-16T08:01:23;96901.83;;;14.75;37.44
47082;BME280;33066;49.296;14.470;2023-04-16T08:03:48;96903.54;;;14.76;38.03
47082;BME280;33066;49.296;14.470;2023-04-16T08:06:14;96909.01;;;14.60;38.33
47082;BME280;33066;49.296;14.470;2023-04-16T08:08:39;96910.03;;;14.54;39.02
47082;BME280;33066;49.296;14.470;2023-04-16T08:11:05;96910.99;;;14.61;39.21
47082;BME280;33066;49.296;14.470;2023-04-16T08:13:30;96911.36;;;14.63;38.68
47082;BME280;33066;49.296;14.470;2023-04-16T08:15:55;96911.39;;;14.60;38.77
47082;BME280;33066;49.296;14.470;2023-04-16T08:18:21;96908.58;;;14.75;38.79
47082;BME280;33066;49.296;14.470;2023-04-16T08:20:46;96909.98;;;14.65;38.30
47082;BME280;33066;49.296;14.470;2023-04-16T08:23:12;96912.08;;;15.07;38.18
47082;BME280;33066;49.296;14.470;2023-04-16T08:25:39;96917.17;;;15.26;38.70
47082;BME280;33066;49.296;14.470;2023-04-16T08:28:03;96922.90;;;15.19;38.34
47082;BME280;33066;49.296;14.470;2023-04-16T08:30:29;96928.02;;;15.28;38.30
47082;BME280;33066;49.296;14.470;2023-04-16T08:32:54;96931.01;;;15.42;37.67
47082;BME280;33066;49.296;14.470;2023-04-16T08:35:19;96934.75;;;15.14;38.14
47082;BME280;33066;49.296;14.470;2023-04-16T08:37:44;96937.55;;;15.38;38.35
47082;BME280;33066;49.296;14.470;2023-04-16T08:40:11;96940.44;;;15.17;38.25
47082;BME280;33066;49.296;14.470;2023-04-16T08:42:41;96942.68;;;15.39;37.96
47082;BME280;33066;49.296;14.470;2023-04-16T08:45:05;96944.80;;;15.17;37.72
47082;BME280;33066;49.296;14.470;2023-04-16T08:47:26;96945.81;;;15.10;37.40
47082;BME280;33066;49.296;14.470;2023-04-16T08:49:55;96950.21;;;15.22;37.30
47082;BME280;33066;49.296;14.470;2023-04-16T08:52:18;96950.35;;;15.40;36.61
47082;BME280;33066;49.296;14.470;2023-04-16T08:54:48;96949.90;;;15.46;36.60
47082;BME280;33066;49.296;14.470;2023-04-16T08:57:10;96951.52;;;15.76;36.62
47082;BME280;33066;49.296;14.470;2023-04-16T08:59:32;96956.01;;;15.92;36.61
47082;BME280;33066;49.296;14.470;2023-04-16T09:01:58;96954.90;;;16.10;36.07
47082;BME280;33066;49.296;14.470;2023-04-16T09:04:27;96956.97;;;16.18;35.46
47082;BME280;33066;49.296;14.470;2023-04-16T09:06:50;96958.11;;;16.25;35.17
47082;BME280;33066;49.296;14.470;2023-04-16T09:09:15;96958.81;;;16.23;34.78
47082;BME280;33066;49.296;14.470;2023-04-16T09:11:39;96958.49;;;16.05;35.05
47082;BME280;33066;49.296;14.470;2023-04-16T09:14:09;96957.57;;;15.90;35.10
47082;BME280;33066;49.296;14.470;2023-04-16T09:16:33;96957.76;;;16.01;34.98
47082;BME280;33066;49.296;14.470;2023-04-16T09:18:56;96959.58;;;16.29;35.28
47082;BME280;33066;49.296;14.470;2023-04-16T09:21:22;96961.29;;;16.33;35.19
47082;BME280;33066;49.296;14.470;2023-04-16T09:23:47;96963.89;;;16.22;34.88
47082;BME280;33066;49.296;14.470;2023-04-16T09:26:13;96965.04;;;16.27;35.12
47082;BME280;33066;49.296;14.470;2023-04-16T09:28:40;96967.13;;;16.41;35.16
47082;BME280;33066;49.296;14.470;2023-04-16T09:31:07;96962.57;;;16.71;34.75
47082;BME280;33066;49.296;14.470;2023-04-16T09:33:30;96958.12;;;16.75;34.44
47082;BME280;33066;49.296;14.470;2023-04-16T09:35:56;96958.28;;;16.87;34.44
47082;BME280;33066;49.296;14.470;2023-04-16T09:38:21;96957.49;;;16.80;34.17
47082;BME280;33066;49.296;14.470;2023-04-16T09:40:46;96960.11;;;16.93;34.64
47082;BME280;33066;49.296;14.470;2023-04-16T09:43:13;96962.96;;;16.95;34.36
47082;BME280;33066;49.296;14.470;2023-04-16T09:45:47;96970.15;;;16.47;34.54
47082;BME280;33066;49.296;14.470;2023-04-16T09:48:03;96972.35;;;16.35;34.43
47082;BME280;33066;49.296;14.470;2023-04-16T09:50:29;96974.85;;;16.19;34.69
47082;BME280;33066;49.296;14.470;2023-04-16T09:52:54;96976.62;;;16.39;34.26
47082;BME280;33066;49.296;14.470;2023-04-16T09:55:28;96976.99;;;16.30;34.43
47082;BME280;33066;49.296;14.470;2023-04-16T09:57:44;96979.68;;;16.18;34.72
47082;BME280;33066;49.296;14.470;2023-04-16T10:00:11;96979.37;;;16.19;34.75
47082;BME280;33066;49.296;14.470;2023-04-16T10:02:39;96979.31;;;16.23;34.75
47082;BME280;33066;49.296;14.470;2023-04-16T10:05:02;96979.47;;;16.51;34.51
47082;BME280;33066;49.296;14.470;2023-04-16T10:07:32;96979.67;;;16.53;34.40
47082;BME280;33066;49.296;14.470;2023-04-16T10:09:52;96975.33;;;16.75;34.35
47082;BME280;33066;49.296;14.470;2023-04-16T10:12:18;96977.86;;;16.74;34.07
47082;BME280;33066;49.296;14.470;2023-04-16T10:14:42;96977.52;;;16.93;34.17
47082;BME280;33066;49.296;14.470;2023-04-16T10:17:08;96977.40;;;17.05;34.54
47082;BME280;33066;49.296;14.470;2023-04-16T10:19:33;96974.49;;;16.98;33.65
47082;BME280;33066;49.296;14.470;2023-04-16T10:21:58;96973.48;;;17.30;33.41
47082;BME280;33066;49.296;14.470;2023-04-16T10:24:24;96971.78;;;17.57;33.14
47082;BME280;33066;49.296;14.470;2023-04-16T10:26:52;96967.64;;;17.58;34.13
47082;BME280;33066;49.296;14.470;2023-04-16T10:29:16;96969.34;;;18.25;33.94
47082;BME280;33066;49.296;14.470;2023-04-16T10:31:41;96966.48;;;18.38;33.01
47082;BME280;33066;49.296;14.470;2023-04-16T10:34:07;96966.24;;;18.17;31.90
47082;BME280;33066;49.296;14.470;2023-04-16T10:36:36;96966.63;;;18.11;32.31
47082;BME280;33066;49.296;14.470;2023-04-16T10:38:58;96966.10;;;18.14;32.31
47082;BME280;33066;49.296;14.470;2023-04-16T10:41:24;96965.89;;;17.69;31.77
47082;BME280;33066;49.296;14.470;2023-04-16T10:43:50;96968.83;;;17.70;32.36
47082;BME280;33066;49.296;14.470;2023-04-16T10:46:19;96966.62;;;17.44;32.12
47082;BME280;33066;49.296;14.470;2023-04-16T10:48:41;96967.14;;;17.52;32.31
47082;BME280;33066;49.296;14.470;2023-04-16T10:51:04;96966.52;;;17.33;32.41
47082;BME280;33066;49.296;14.470;2023-04-16T10:53:30;96963.63;;;17.64;32.69
47082;BME280;33066;49.296;14.470;2023-04-16T10:56:01;96966.66;;;17.58;32.23
47082;BME280;33066;49.296;14.470;2023-04-16T10:58:27;96965.21;;;17.81;32.42
47082;BME280;33066;49.296;14.470;2023-04-16T11:00:48;96966.61;;;17.86;32.57
47082;BME280;33066;49.296;14.470;2023-04-16T11:03:12;96968.61;;;17.51;32.83
47082;BME280;33066;49.296;14.470;2023-04-16T11:05:44;96970.91;;;17.71;32.84
47082;BME280;33066;49.296;14.470;2023-04-16T11:08:12;96970.18;;;17.71;33.28
47082;BME280;33066;49.296;14.470;2023-04-16T11:10:28;96969.54;;;18.37;33.17
47082;BME280;33066;49.296;14.470;2023-04-16T11:12:54;96969.22;;;18.84;32.93
47082;BME280;33066;49.296;14.470;2023-04-16T11:15:19;96964.64;;;19.40;32.89
47082;BME280;33066;49.296;14.470;2023-04-16T11:17:46;96960.87;;;19.89;31.91
47082;BME280;33066;49.296;14.470;2023-04-16T11:20:16;96958.86;;;19.74;30.55
47082;BME280;33066;49.296;14.470;2023-04-16T11:22:35;96962.02;;;20.16;30.77
47082;BME280;33066;49.296;14.470;2023-04-16T11:25:01;96965.11;;;20.13;29.87
47082;BME280;33066;49.296;14.470;2023-04-16T11:27:26;96962.31;;;20.08;30.11
47082;BME280;33066;49.296;14.470;2023-04-16T11:29:57;96962.87;;;20.11;29.59
47082;BME280;33066;49.296;14.470;2023-04-16T11:32:20;96964.22;;;19.94;28.94
47082;BME280;33066;49.296;14.470;2023-04-16T11:34:43;96968.04;;;19.84;28.32
47082;BME280;33066;49.296;14.470;2023-04-16T11:37:07;96966.75;;;19.84;28.46
47082;BME280;33066;49.296;14.470;2023-04-16T11:39:32;96968.05;;;20.40;28.67
47082;BME280;33066;49.296;14.470;2023-04-16T11:41:57;96964.37;;;20.67;28.55
47082;BME280;33066;49.296;14.470;2023-04-16T11:44:23;96963.73;;;20.41;28.58
47082;BME280;33066;49.296;14.470;2023-04-16T11:46:48;96966.27;;;20.22;28.75
47082;BME280;33066;49.296;14.470;2023-04-16T11:49:15;96967.91;;;20.14;28.73
47082;BME280;33066;49.296;14.470;2023-04-16T11:51:39;96975.17;;;19.79;29.19
47082;BME280;33066;49.296;14.470;2023-04-16T11:54:06;96978.75;;;19.69;29.34
47082;BME280;33066;49.296;14.470;2023-04-16T11:56:32;96983.18;;;19.56;29.70
47082;BME280;33066;49.296;14.470;2023-04-16T11:59:06;96983.07;;;19.25;29.42
47082;BME280;33066;49.296;14.470;2023-04-16T12:01:21;96986.54;;;18.95;29.93
47082;BME280;33066;49.296;14.470;2023-04-16T12:03:46;96988.26;;;18.73;30.15
47082;BME280;33066;49.296;14.470;2023-04-16T12:06:13;96989.62;;;18.78;30.60
47082;BME280;33066;49.296;14.470;2023-04-16T12:08:37;96989.81;;;18.39;31.07
47082;BME280;33066;49.296;14.470;2023-04-16T12:11:02;96989.02;;;18.20;30.59
47082;BME280;33066;49.296;14.470;2023-04-16T12:13:27;96985.54;;;18.19;30.63
47082;BME280;33066;49.296;14.470;2023-04-16T12:15:54;96987.44;;;18.06;30.85
47082;BME280;33066;49.296;14.470;2023-04-16T12:18:20;96986.40;;;17.91;30.51
47082;BME280;33066;49.296;14.470;2023-04-16T12:20:44;96983.73;;;17.87;30.55
47082;BME280;33066;49.296;14.470;2023-04-16T12:23:13;96985.04;;;18.01;30.95
47082;BME280;33066;49.296;14.470;2023-04-16T12:25:34;96988.23;;;18.19;31.44
47082;BME280;33066;49.296;14.470;2023-04-16T12:27:59;96984.07;;;17.95;31.13
47082;BME280;33066;49.296;14.470;2023-04-16T12:30:25;96981.28;;;17.84;31.21
47082;BME280;33066;49.296;14.470;2023-04-16T12:32:52;96979.28;;;17.94;31.16
47082;BME280;33066;49.296;14.470;2023-04-16T12:35:29;96983.23;;;18.22;31.32
47082;BME280;33066;49.296;14.470;2023-04-16T12:37:41;96986.27;;;18.47;31.36
47082;BME280;33066;49.296;14.470;2023-04-16T12:40:07;96986.28;;;19.42;30.75